CheckWX is a tool to help pilots better visualize weather data.  It is not intended as a substitute for an official pre-flight weather briefing.

04:19:29 UTC

KMEH METAR
Meacham Airport
Meacham, Oregon, USA
Current

23 mins ago

KMEH 270356Z AUTO 00000KT 10SM FEW028 BKN055 OVC070 11/08 A2987 RMK AO2 SLP106 T01110083
Observed
May-27 @ 03:56 UTC
Visibility
10 SM
Flight Rules
VFR
Cloud Levels
  • Few at 2,800' AGL
  • Broken at 5,500' AGL
  • Overcast at 7,000' AGL
Temperature
11°C / 52°F
Dewpoint
C / 46°F
Humidity
82%
Altimeter
29.87" Hg
Pressure
1011.52 hPa
Previous

1 hour ago

KMEH 270256Z AUTO 00000KT 10SM FEW011 12/08 A2986 RMK AO2 SLP103 T01170083 53010
Observed
May-27 @ 02:56 UTC
Visibility
10 SM
Flight Rules
VFR
Cloud Levels
  • Few at 1,100' AGL
Temperature
12°C / 54°F
Dewpoint
C / 46°F
Humidity
77%
Altimeter
29.86" Hg
Pressure
1011.22 hPa
Previous

2 hours ago

KMEH 270156Z AUTO VRB03KT 10SM FEW085 13/07 A2985 RMK AO2 SLP103 T01330067
Observed
May-27 @ 01:56 UTC
Wind
  • Variable at 3 KTS
Visibility
10 SM
Flight Rules
VFR
Cloud Levels
  • Few at 8,500' AGL
Temperature
13°C / 55°F
Dewpoint
C / 45°F
Humidity
67%
Altimeter
29.85" Hg
Pressure
1010.82 hPa